createdAt,value
2023-04-11T00:01:11.984Z,5.00
2023-04-11T00:04:02.123Z,5.00
2023-04-11T00:06:51.840Z,4.80
2023-04-11T00:09:41.463Z,4.80
2023-04-11T00:12:30.959Z,4.70
2023-04-11T00:15:24.455Z,4.70
2023-04-11T00:18:14.438Z,4.70
2023-04-11T00:21:05.052Z,4.60
2023-04-11T00:23:55.477Z,4.50
2023-04-11T00:26:44.945Z,4.50
2023-04-11T00:29:36.407Z,4.40
2023-04-11T00:32:27.514Z,4.40
2023-04-11T00:35:17.490Z,4.30
2023-04-11T00:38:07.896Z,4.30
2023-04-11T00:40:57.284Z,4.30
2023-04-11T00:43:47.976Z,4.30
2023-04-11T00:46:37.477Z,4.30
2023-04-11T00:49:28.421Z,4.20
2023-04-11T00:52:18.200Z,4.20
2023-04-11T00:55:09.459Z,4.20
2023-04-11T00:57:59.215Z,4.20
2023-04-11T01:00:51.200Z,4.10
2023-04-11T01:03:41.661Z,4.10
2023-04-11T01:06:33.984Z,4.00
2023-04-11T01:09:26.239Z,4.00
2023-04-11T01:12:17.880Z,4.00
2023-04-11T01:15:08.934Z,4.00
2023-04-11T01:18:02.393Z,4.00
2023-04-11T01:20:52.235Z,4.00
2023-04-11T01:23:43.146Z,4.10
2023-04-11T01:26:32.798Z,4.20
2023-04-11T01:29:22.367Z,4.20
2023-04-11T01:32:11.970Z,4.20
2023-04-11T01:35:02.986Z,4.20
2023-04-11T01:37:52.957Z,4.10
2023-04-11T01:40:50.599Z,4.10
2023-04-11T01:43:40.105Z,4.10
2023-04-11T01:46:31.027Z,4.00
2023-04-11T01:49:21.968Z,3.90
2023-04-11T01:52:11.877Z,3.90
2023-04-11T01:55:01.349Z,3.80
2023-04-11T01:57:52.677Z,3.80
2023-04-11T02:00:42.167Z,3.70
2023-04-11T02:03:31.886Z,3.70
2023-04-11T02:06:22.228Z,3.70
2023-04-11T02:09:12.067Z,3.70
2023-04-11T02:12:13.781Z,3.60
2023-04-11T02:15:05.117Z,3.60
2023-04-11T02:17:54.710Z,3.50
2023-04-11T02:20:44.710Z,3.30
2023-04-11T02:23:34.341Z,3.30
2023-04-11T02:26:23.823Z,3.30
2023-04-11T02:29:13.638Z,3.20
2023-04-11T02:32:05.105Z,3.20
2023-04-11T02:34:55.233Z,3.20
2023-04-11T02:37:45.733Z,3.20
2023-04-11T02:40:35.239Z,3.10
2023-04-11T02:43:24.922Z,3.10
2023-04-11T02:46:14.425Z,3.10
2023-04-11T02:49:06.532Z,3.00
2023-04-11T02:51:56.083Z,3.00
2023-04-11T02:54:45.590Z,2.90
2023-04-11T02:57:35.221Z,2.90
2023-04-11T03:00:25.182Z,2.90
2023-04-11T03:03:15.083Z,2.90
2023-04-11T03:06:07.361Z,2.80
2023-04-11T03:08:57.770Z,2.80
2023-04-11T03:11:47.544Z,2.80
2023-04-11T03:14:37.181Z,2.80
2023-04-11T03:17:26.842Z,2.80
2023-04-11T03:20:20.558Z,2.80
2023-04-11T03:23:11.923Z,2.70
2023-04-11T03:26:01.921Z,2.70
2023-04-11T03:28:51.641Z,2.70
2023-04-11T03:31:41.205Z,2.70
2023-04-11T03:34:31.386Z,2.60
2023-04-11T03:37:20.855Z,2.60
2023-04-11T03:40:13.070Z,2.60
2023-04-11T03:43:04.656Z,2.60
2023-04-11T03:45:54.617Z,2.70
2023-04-11T03:48:44.110Z,2.60
2023-04-11T03:51:34.296Z,2.70
2023-04-11T03:54:23.927Z,2.70
2023-04-11T03:57:15.012Z,2.70
2023-04-11T04:00:05.949Z,2.70
2023-04-11T04:02:55.950Z,2.60
2023-04-11T04:05:45.884Z,2.60
2023-04-11T04:08:35.863Z,2.60
2023-04-11T04:11:25.755Z,2.60
2023-04-11T04:14:17.017Z,2.70
2023-04-11T04:17:07.066Z,2.70
2023-04-11T04:19:56.566Z,2.80
2023-04-11T04:22:48.023Z,2.80
2023-04-11T04:25:37.445Z,2.90
2023-04-11T04:28:27.758Z,3.00
2023-04-11T04:31:22.588Z,3.00
2023-04-11T04:34:14.385Z,3.10
2023-04-11T04:37:04.164Z,3.20
2023-04-11T04:40:02.473Z,3.30
2023-04-11T04:42:59.207Z,3.40
2023-04-11T04:45:48.622Z,3.50
2023-04-11T04:48:39.705Z,3.50
2023-04-11T04:51:30.529Z,3.60
2023-04-11T04:54:20.582Z,3.70
2023-04-11T04:57:10.451Z,3.90
2023-04-11T05:00:00.301Z,3.90
2023-04-11T05:02:50.025Z,4.00
2023-04-11T05:05:41.084Z,4.20
2023-04-11T05:08:30.691Z,4.30
2023-04-11T05:11:20.226Z,4.50
2023-04-11T05:14:09.950Z,4.60
2023-04-11T05:16:59.905Z,4.80
2023-04-11T05:19:49.546Z,5.00
2023-04-11T05:22:40.505Z,5.20
2023-04-11T05:25:30.362Z,5.50
2023-04-11T05:28:20.126Z,5.70
2023-04-11T05:31:10.396Z,5.90
2023-04-11T05:33:59.861Z,6.10
2023-04-11T05:36:49.926Z,6.30
2023-04-11T05:39:40.955Z,6.50
2023-04-11T05:42:30.833Z,6.70
2023-04-11T05:45:20.304Z,7.00
2023-04-11T05:48:10.218Z,7.20
2023-04-11T05:51:00.696Z,7.50
2023-04-11T05:53:50.329Z,7.60
2023-04-11T05:56:42.768Z,7.70
2023-04-11T05:59:33.488Z,7.90
2023-04-11T06:02:23.298Z,8.10
2023-04-11T06:05:13.562Z,8.30
2023-04-11T06:08:04.086Z,8.50
2023-04-11T06:10:53.677Z,8.70
2023-04-11T06:13:45.247Z,8.90
2023-04-11T06:16:37.116Z,9.10
2023-04-11T06:19:26.654Z,9.30
2023-04-11T06:22:16.501Z,9.40
2023-04-11T06:25:06.563Z,9.60
2023-04-11T06:27:56.104Z,9.70
2023-04-11T06:30:47.154Z,9.90
2023-04-11T06:33:36.796Z,10.10
2023-04-11T06:36:26.365Z,10.30
2023-04-11T06:39:17.213Z,10.40
2023-04-11T06:42:07.429Z,10.60
2023-04-11T06:44:56.978Z,10.70
2023-04-11T06:47:48.123Z,10.80
2023-04-11T06:50:40.255Z,11.00
2023-04-11T06:53:29.992Z,11.20
2023-04-11T06:56:19.875Z,11.20
2023-04-11T06:59:09.383Z,11.30
2023-04-11T07:02:00.190Z,11.40
2023-04-11T07:04:51.969Z,11.50
2023-04-11T07:07:42.451Z,11.60
2023-04-11T07:10:31.980Z,11.80
2023-04-11T07:13:24.979Z,11.80
2023-04-11T07:16:14.720Z,11.80
2023-04-11T07:19:04.275Z,12.00
2023-04-11T07:21:55.346Z,12.10
2023-04-11T07:24:46.955Z,12.30
2023-04-11T07:27:36.850Z,12.30
2023-04-11T07:30:26.489Z,12.40
2023-04-11T07:33:16.386Z,12.60
2023-04-11T07:36:06.624Z,12.60
2023-04-11T07:38:58.229Z,12.60
2023-04-11T07:41:47.771Z,12.70
2023-04-11T07:44:37.228Z,12.90
2023-04-11T07:47:26.790Z,12.90
2023-04-11T07:50:16.586Z,13.00
2023-04-11T07:53:06.537Z,12.80
2023-04-11T07:55:57.571Z,13.10
2023-04-11T07:58:47.016Z,13.30
2023-04-11T08:01:36.757Z,13.50
2023-04-11T08:04:26.450Z,13.70
2023-04-11T08:07:16.186Z,13.70
2023-04-11T08:10:08.003Z,13.70
2023-04-11T08:12:59.098Z,13.80
2023-04-11T08:15:48.668Z,13.80
2023-04-11T08:18:42.654Z,13.90
2023-04-11T08:21:32.670Z,14.00
2023-04-11T08:24:22.428Z,14.10
2023-04-11T08:27:12.200Z,14.20
2023-04-11T08:30:04.004Z,14.30
2023-04-11T08:32:53.714Z,14.60
2023-04-11T08:35:44.209Z,14.90
2023-04-11T08:38:33.897Z,14.80
2023-04-11T08:41:23.936Z,14.70
2023-04-11T08:44:13.876Z,15.10
2023-04-11T08:47:06.532Z,15.60
2023-04-11T08:49:56.936Z,15.50
2023-04-11T08:52:48.491Z,15.40
2023-04-11T08:55:46.078Z,15.10
2023-04-11T08:58:35.862Z,15.20
2023-04-11T09:01:32.404Z,15.40
2023-04-11T09:04:23.795Z,15.30
2023-04-11T09:07:13.762Z,15.20
2023-04-11T09:10:20.704Z,15.40
2023-04-11T09:13:22.830Z,14.90
2023-04-11T09:16:14.645Z,15.40
2023-04-11T09:19:04.907Z,15.60
2023-04-11T09:21:57.148Z,15.50
2023-04-11T09:24:49.023Z,15.60
2023-04-11T09:27:38.740Z,15.80
2023-04-11T09:30:28.951Z,15.80
2023-04-11T09:33:23.817Z,15.80
2023-04-11T09:36:23.771Z,15.80
2023-04-11T09:39:21.570Z,15.90
2023-04-11T09:42:26.492Z,15.50
2023-04-11T09:45:20.800Z,16.00
2023-04-11T09:48:10.617Z,15.70
2023-04-11T09:51:00.994Z,15.80
2023-04-11T09:53:52.646Z,16.20
2023-04-11T09:56:44.654Z,16.40
2023-04-11T09:59:39.369Z,16.50
2023-04-11T10:02:30.743Z,16.90
2023-04-11T10:05:21.110Z,17.00
2023-04-11T10:08:14.805Z,17.40
2023-04-11T10:11:05.833Z,17.20
2023-04-11T10:13:58.299Z,17.20
2023-04-11T10:17:21.863Z,17.50
2023-04-11T10:20:47.349Z,17.60
2023-04-11T10:24:06.496Z,17.00
2023-04-11T10:26:58.296Z,17.50
2023-04-11T10:29:51.851Z,17.60
2023-04-11T10:32:42.437Z,17.70
2023-04-11T10:35:32.406Z,17.50
2023-04-11T10:38:49.613Z,18.00
2023-04-11T10:41:39.440Z,18.20
2023-04-11T10:44:29.114Z,18.00
2023-04-11T10:47:21.019Z,18.00
2023-04-11T10:50:35.369Z,18.10
2023-04-11T10:53:38.926Z,18.00
2023-04-11T10:56:57.085Z,18.20
2023-04-11T11:00:02.204Z,18.50
2023-04-11T11:02:53.542Z,17.80
2023-04-11T11:05:43.540Z,18.00
2023-04-11T11:08:34.774Z,17.20
2023-04-11T11:11:24.545Z,17.10
2023-04-11T11:14:31.754Z,17.20
2023-04-11T11:17:22.404Z,17.60
2023-04-11T11:20:20.463Z,17.90
2023-04-11T11:23:11.948Z,17.20
2023-04-11T11:26:01.885Z,17.60
2023-04-11T11:28:51.503Z,17.50
2023-04-11T11:31:42.731Z,17.50
2023-04-11T11:34:34.156Z,17.60
2023-04-11T11:37:25.393Z,17.90
2023-04-11T11:40:15.507Z,18.00
2023-04-11T11:43:05.226Z,18.10
2023-04-11T11:46:09.898Z,18.30
2023-04-11T11:49:01.847Z,18.70
2023-04-11T11:51:51.463Z,18.30
2023-04-11T11:54:49.344Z,17.90
2023-04-11T11:57:39.026Z,18.40
2023-04-11T12:00:29.915Z,18.80
2023-04-11T12:03:23.420Z,18.90
2023-04-11T12:06:13.968Z,18.40
2023-04-11T12:09:04.954Z,18.40
2023-04-11T12:11:57.256Z,18.50
2023-04-11T12:14:55.331Z,18.50
2023-04-11T12:17:45.438Z,18.50
2023-04-11T12:20:35.107Z,18.30
2023-04-11T12:23:25.373Z,18.00
2023-04-11T12:26:16.347Z,17.90
2023-04-11T12:29:07.644Z,18.20
2023-04-11T12:31:57.296Z,17.90
2023-04-11T12:34:47.026Z,17.90
2023-04-11T12:37:37.259Z,18.10
2023-04-11T12:40:26.912Z,17.90
2023-04-11T12:43:16.736Z,18.00
2023-04-11T12:46:08.212Z,18.10
2023-04-11T12:48:58.815Z,18.10
2023-04-11T12:51:48.550Z,18.40
2023-04-11T12:54:38.190Z,18.30
2023-04-11T12:57:29.060Z,17.90
2023-04-11T13:00:19.831Z,17.90
2023-04-11T13:03:11.557Z,18.30
2023-04-11T13:06:01.537Z,18.30
2023-04-11T13:08:51.622Z,18.00
2023-04-11T13:11:41.233Z,17.50
2023-04-11T13:14:31.489Z,17.20
2023-04-11T13:17:21.390Z,17.60
2023-04-11T13:20:14.640Z,17.90
2023-04-11T13:23:04.517Z,17.90
2023-04-11T13:25:54.272Z,18.00
2023-04-11T13:28:44.077Z,18.30
2023-04-11T13:31:33.922Z,18.90
2023-04-11T13:34:23.411Z,18.60
2023-04-11T13:37:14.600Z,19.20
2023-04-11T13:40:11.543Z,20.80
2023-04-11T13:43:01.121Z,20.50
2023-04-11T13:45:50.903Z,20.60
2023-04-11T13:48:40.444Z,20.30
2023-04-11T13:51:30.171Z,21.50
2023-04-11T13:54:21.475Z,20.90
2023-04-11T13:57:11.291Z,20.70
2023-04-11T14:00:00.882Z,20.30
2023-04-11T14:02:52.378Z,19.90
2023-04-11T14:05:42.521Z,19.50
2023-04-11T14:08:32.196Z,19.30
2023-04-11T14:11:23.582Z,19.80
2023-04-11T14:14:13.214Z,19.70
2023-04-11T14:17:02.924Z,21.00
2023-04-11T14:19:52.850Z,21.10
2023-04-11T14:22:42.808Z,20.90
2023-04-11T14:25:32.954Z,20.30
2023-04-11T14:28:26.569Z,19.70
2023-04-11T14:31:16.694Z,19.40
2023-04-11T14:34:06.553Z,19.40
2023-04-11T14:36:56.179Z,19.20
2023-04-11T14:39:45.925Z,18.70
2023-04-11T14:42:35.442Z,18.00
2023-04-11T14:45:26.530Z,17.80
2023-04-11T14:48:16.551Z,17.40
2023-04-11T14:51:07.536Z,17.10
2023-04-11T14:53:58.068Z,16.80
2023-04-11T14:56:48.629Z,16.70
2023-04-11T14:59:38.152Z,16.80
2023-04-11T15:02:31.039Z,17.00
2023-04-11T15:05:22.025Z,17.10
2023-04-11T15:08:11.965Z,17.20
2023-04-11T15:11:01.742Z,17.50
2023-04-11T15:13:53.191Z,17.70
2023-04-11T15:16:42.923Z,17.70
2023-04-11T15:19:34.151Z,17.90
2023-04-11T15:22:23.763Z,17.60
2023-04-11T15:25:14.989Z,17.80
2023-04-11T15:28:04.622Z,17.60
2023-04-11T15:30:55.780Z,17.50
2023-04-11T15:33:45.548Z,17.50
2023-04-11T15:36:40.344Z,17.40
2023-04-11T15:39:30.192Z,17.30
2023-04-11T15:42:19.828Z,17.10
2023-04-11T15:45:10.682Z,16.80
2023-04-11T15:48:00.309Z,16.60
2023-04-11T15:50:51.132Z,16.40
2023-04-11T15:53:42.204Z,16.50
2023-04-11T15:56:31.986Z,16.40
2023-04-11T15:59:23.106Z,16.50
2023-04-11T16:02:15.663Z,16.40
2023-04-11T16:05:05.922Z,16.50
2023-04-11T16:07:55.590Z,16.40
2023-04-11T16:10:47.241Z,16.50
2023-04-11T16:13:38.461Z,16.50
2023-04-11T16:16:28.282Z,16.40
2023-04-11T16:19:17.970Z,16.40
2023-04-11T16:22:07.422Z,16.20
2023-04-11T16:24:57.487Z,15.80
2023-04-11T16:27:49.146Z,15.50
2023-04-11T16:30:38.625Z,15.30
2023-04-11T16:33:28.416Z,15.10
2023-04-11T16:36:18.055Z,14.80
2023-04-11T16:39:07.652Z,14.50
2023-04-11T16:41:57.664Z,14.30
2023-04-11T16:44:48.677Z,14.10
2023-04-11T16:47:38.360Z,13.80
2023-04-11T16:50:27.967Z,13.60
2023-04-11T16:53:18.924Z,13.40
2023-04-11T16:56:09.170Z,13.20
2023-04-11T16:58:58.688Z,13.00
2023-04-11T17:01:49.923Z,12.80
2023-04-11T17:04:39.753Z,12.70
2023-04-11T17:07:30.287Z,12.60
2023-04-11T17:10:20.096Z,12.50
2023-04-11T17:13:09.629Z,12.40
2023-04-11T17:15:59.156Z,12.30
2023-04-11T17:18:50.033Z,12.30
2023-04-11T17:21:40.565Z,12.30
2023-04-11T17:24:30.706Z,12.30
2023-04-11T17:27:20.495Z,12.30
2023-04-11T17:30:12.496Z,12.20
2023-04-11T17:33:02.109Z,12.10
2023-04-11T17:35:53.481Z,12.00
2023-04-11T17:38:43.856Z,11.90
2023-04-11T17:41:33.310Z,11.70
2023-04-11T17:44:22.629Z,11.60
2023-04-11T17:47:17.845Z,11.50
2023-04-11T17:50:10.231Z,11.40
2023-04-11T17:53:01.329Z,11.30
2023-04-11T17:55:50.965Z,11.20
2023-04-11T17:58:44.572Z,11.10
2023-04-11T18:01:34.347Z,10.90
2023-04-11T18:04:24.404Z,10.80
2023-04-11T18:07:14.074Z,10.70
2023-04-11T18:10:05.586Z,10.60
2023-04-11T18:12:56.706Z,10.50
2023-04-11T18:15:46.772Z,10.40
2023-04-11T18:18:37.287Z,10.30
2023-04-11T18:21:26.901Z,10.20
2023-04-11T18:24:17.140Z,10.20
2023-04-11T18:27:08.937Z,10.20
2023-04-11T18:30:01.389Z,10.20
2023-04-11T18:32:52.572Z,10.30
2023-04-11T18:35:42.679Z,10.30
2023-04-11T18:38:32.830Z,10.40
2023-04-11T18:41:22.341Z,10.40
2023-04-11T18:44:14.354Z,10.40
2023-04-11T18:47:06.377Z,10.40
2023-04-11T18:49:56.585Z,10.40
2023-04-11T18:52:48.814Z,10.40
2023-04-11T18:55:42.408Z,10.40
2023-04-11T18:58:34.302Z,10.50
2023-04-11T19:01:27.033Z,10.50
2023-04-11T19:04:19.493Z,10.60
2023-04-11T19:07:11.508Z,10.70
2023-04-11T19:10:01.735Z,10.80
2023-04-11T19:12:54.858Z,10.80
2023-04-11T19:15:47.303Z,10.80
2023-04-11T19:18:38.872Z,10.80
2023-04-11T19:21:32.142Z,10.80
2023-04-11T19:24:24.260Z,10.70
2023-04-11T19:27:16.379Z,10.80
2023-04-11T19:30:07.998Z,10.70
2023-04-11T19:32:59.746Z,10.70
2023-04-11T19:35:52.077Z,10.70
2023-04-11T19:38:42.903Z,10.70
2023-04-11T19:41:36.416Z,10.60
2023-04-11T19:44:27.323Z,10.60
2023-04-11T19:47:21.469Z,10.60
2023-04-11T19:50:18.877Z,10.70
2023-04-11T19:53:11.903Z,10.60
2023-04-11T19:56:03.547Z,10.70
2023-04-11T19:58:54.386Z,10.70
2023-04-11T20:01:45.906Z,10.70
2023-04-11T20:04:39.994Z,10.80
2023-04-11T20:07:31.200Z,10.70
2023-04-11T20:10:51.407Z,10.80
2023-04-11T20:13:45.989Z,10.80
2023-04-11T20:16:37.487Z,10.70
2023-04-11T20:19:30.771Z,10.70
2023-04-11T20:22:22.432Z,10.70
2023-04-11T20:25:19.673Z,10.80
2023-04-11T20:28:11.905Z,10.80
2023-04-11T20:31:03.539Z,10.80
2023-04-11T20:33:53.730Z,10.80
2023-04-11T20:36:44.219Z,10.80
2023-04-11T20:39:33.822Z,10.80
2023-04-11T20:42:23.375Z,10.80
2023-04-11T20:45:16.136Z,10.80
2023-04-11T20:48:06.771Z,10.80
2023-04-11T20:50:56.522Z,10.70
2023-04-11T20:53:46.050Z,10.70
2023-04-11T20:56:35.824Z,10.70
2023-04-11T20:59:25.364Z,10.70
2023-04-11T21:02:16.917Z,10.60
2023-04-11T21:05:08.838Z,10.60
2023-04-11T21:07:58.744Z,10.60
2023-04-11T21:10:48.289Z,10.60
2023-04-11T21:13:37.849Z,10.50
2023-04-11T21:16:27.381Z,10.50
2023-04-11T21:19:18.725Z,10.50
2023-04-11T21:22:08.150Z,10.50
2023-04-11T21:24:57.641Z,10.50
2023-04-11T21:27:48.152Z,10.60
2023-04-11T21:30:38.190Z,10.60
2023-04-11T21:33:29.062Z,10.60
2023-04-11T21:36:24.124Z,10.60
2023-04-11T21:39:18.109Z,10.60
2023-04-11T21:42:07.754Z,10.60
2023-04-11T21:44:58.483Z,10.60
2023-04-11T21:47:48.287Z,10.60
2023-04-11T21:50:38.467Z,10.50
2023-04-11T21:53:29.417Z,10.50
2023-04-11T21:56:18.961Z,10.40
2023-04-11T21:59:08.407Z,10.30
2023-04-11T22:01:58.365Z,10.30
2023-04-11T22:05:04.651Z,10.10
2023-04-11T22:08:12.259Z,10.00
2023-04-11T22:11:08.088Z,9.90
2023-04-11T22:13:58.913Z,9.90
2023-04-11T22:16:50.582Z,9.90
2023-04-11T22:19:42.585Z,9.90
2023-04-11T22:22:32.771Z,9.80
2023-04-11T22:25:22.898Z,9.80
2023-04-11T22:28:19.963Z,9.80
2023-04-11T22:31:09.874Z,9.80
2023-04-11T22:33:59.742Z,9.70
2023-04-11T22:36:49.572Z,9.70
2023-04-11T22:39:38.884Z,9.70
2023-04-11T22:42:28.504Z,9.70
2023-04-11T22:45:20.119Z,9.70
2023-04-11T22:48:09.636Z,9.70
2023-04-11T22:51:00.736Z,9.70
2023-04-11T22:53:50.254Z,9.70
2023-04-11T22:56:39.985Z,9.80
2023-04-11T22:59:30.100Z,9.80
2023-04-11T23:02:21.421Z,9.70
2023-04-11T23:05:11.567Z,9.70
2023-04-11T23:08:01.109Z,9.70
2023-04-11T23:10:52.727Z,9.70
2023-04-11T23:13:42.608Z,9.70
2023-04-11T23:16:32.153Z,9.60
2023-04-11T23:19:23.338Z,9.50
2023-04-11T23:22:12.957Z,9.50
2023-04-11T23:25:02.425Z,9.40
2023-04-11T23:27:51.933Z,9.30
2023-04-11T23:30:41.897Z,9.20
2023-04-11T23:33:31.586Z,9.00
2023-04-11T23:36:23.128Z,8.90
2023-04-11T23:39:14.466Z,8.80
2023-04-11T23:42:03.924Z,8.70
2023-04-11T23:44:53.696Z,8.60
2023-04-11T23:47:43.436Z,8.50
2023-04-11T23:50:33.155Z,8.40
2023-04-11T23:53:24.207Z,8.30
2023-04-11T23:56:14.064Z,8.20
2023-04-11T23:59:03.809Z,8.10
